Time;durP1;ratioP1;P1;durP2;ratioP2;P2;SDS_P1;SDS_P2;PMS_P1;PMS_P2;Temp;Humidity;BMP_temperature;BMP_pressure;BME280_temperature;BME280_humidity;BME280_pressure;Samples;Min_cycle;Max_cycle;Signal;HPM_P1;HPM_P2
2021/12/26 18:51:58;;;;;;;24.55;18.67;;;;;;;;;;5593778;23;20444;-82
2021/12/26 18:54:24;;;;;;;23.38;17.20;;;;;;;;;;4896173;29;20403;-81
2021/12/26 18:56:51;;;;;;;24.23;18.42;;;;;;;;;;4894158;29;20410;-80
2021/12/26 18:59:17;;;;;;;23.63;18.50;;;;;;;;;;4903285;29;20389;-79
2021/12/26 19:01:43;;;;;;;23.90;17.93;;;;;;;;;;4891540;29;20425;-81
2021/12/26 19:04:10;;;;;;;26.73;18.73;;;;;;;;;;4892822;29;20397;-79
2021/12/26 19:06:39;;;;;;;25.60;19.52;;;;;;;;;;4899763;29;20398;-81
2021/12/26 19:09:06;;;;;;;25.17;20.00;;;;;;;;;;4886292;29;20453;-81
2021/12/26 19:11:32;;;;;;;26.10;19.80;;;;;;;;;;4905026;29;20400;-82
2021/12/26 19:13:59;;;;;;;26.07;20.47;;;;;;;;;;4905797;29;20468;-82
2021/12/26 19:16:28;;;;;;;26.05;20.15;;;;;;;;;;4905772;29;20377;-83
2021/12/26 19:18:54;;;;;;;28.58;20.73;;;;;;;;;;4905355;29;20455;-82
2021/12/26 19:21:28;;;;;;;29.05;20.90;;;;;;;;;;4906153;29;20378;-80
2021/12/26 19:23:54;;;;;;;33.85;22.27;;;;;;;;;;4887046;29;20397;-80
2021/12/26 19:26:22;;;;;;;32.85;21.98;;;;;;;;;;4890872;29;20413;-79
2021/12/26 19:28:49;;;;;;;28.40;21.47;;;;;;;;;;4889319;29;20389;-81
2021/12/26 19:31:19;;;;;;;29.05;20.75;;;;;;;;;;4887089;29;20914;-79
2021/12/26 19:33:47;;;;;;;28.65;21.42;;;;;;;;;;4887675;29;20413;-79
2021/12/26 19:36:15;;;;;;;31.63;21.92;;;;;;;;;;4888351;29;20538;-80
2021/12/26 19:38:42;;;;;;;31.20;22.13;;;;;;;;;;4900868;29;20431;-83
2021/12/26 19:41:11;;;;;;;29.20;22.13;;;;;;;;;;4896447;29;20884;-82
2021/12/26 19:43:37;;;;;;;30.20;21.88;;;;;;;;;;4885245;29;20745;-79
2021/12/26 19:46:04;;;;;;;28.70;21.23;;;;;;;;;;4902584;29;20381;-79
2021/12/26 19:48:34;;;;;;;47.55;22.85;;;;;;;;;;4889533;29;20427;-81
2021/12/26 19:51:00;;;;;;;32.28;21.75;;;;;;;;;;4902666;29;20389;-81
2021/12/26 19:53:29;;;;;;;28.88;21.77;;;;;;;;;;4903443;29;20429;-79
2021/12/26 19:55:55;;;;;;;60.30;23.75;;;;;;;;;;4891284;29;20757;-81
2021/12/26 19:58:21;;;;;;;33.97;23.10;;;;;;;;;;4902168;29;20409;-79
2021/12/26 20:00:47;;;;;;;32.72;23.45;;;;;;;;;;4903117;29;20411;-80
2021/12/26 20:03:16;;;;;;;28.30;21.83;;;;;;;;;;4879915;29;21201;-82
2021/12/26 20:05:45;;;;;;;32.95;23.67;;;;;;;;;;4901709;29;20385;-82
2021/12/26 20:08:11;;;;;;;30.55;22.73;;;;;;;;;;4888296;29;20417;-79
2021/12/26 20:10:37;;;;;;;40.80;23.27;;;;;;;;;;4900671;29;20459;-80
2021/12/26 20:13:04;;;;;;;37.17;24.10;;;;;;;;;;4884047;29;20427;-79
2021/12/26 20:15:31;;;;;;;34.80;23.83;;;;;;;;;;4890094;29;20541;-82
2021/12/26 20:17:58;;;;;;;35.63;26.03;;;;;;;;;;4897009;29;20409;-79
2021/12/26 20:20:25;;;;;;;32.60;25.27;;;;;;;;;;4891742;29;20832;-82
2021/12/26 20:22:51;;;;;;;36.47;25.90;;;;;;;;;;4898356;29;20389;-80
2021/12/26 20:25:17;;;;;;;34.75;25.80;;;;;;;;;;4899074;29;20465;-80
2021/12/26 20:27:49;;;;;;;33.72;24.67;;;;;;;;;;4898913;29;20401;-82
2021/12/26 20:30:15;;;;;;;39.83;26.93;;;;;;;;;;4897547;29;20531;-83
2021/12/26 20:32:41;;;;;;;37.00;27.10;;;;;;;;;;4885052;29;20437;-81
2021/12/26 20:35:07;;;;;;;36.45;25.85;;;;;;;;;;4882917;29;20407;-80
2021/12/26 20:37:33;;;;;;;35.47;26.75;;;;;;;;;;4883936;29;20398;-81
2021/12/26 20:40:00;;;;;;;36.50;26.00;;;;;;;;;;4898574;29;20476;-81
2021/12/26 20:42:26;;;;;;;37.85;26.45;;;;;;;;;;4881150;29;20393;-81
2021/12/26 20:44:52;;;;;;;37.90;27.27;;;;;;;;;;4897547;29;20484;-82
2021/12/26 20:47:18;;;;;;;36.08;27.00;;;;;;;;;;4880564;29;20394;-83
2021/12/26 20:49:44;;;;;;;37.10;27.80;;;;;;;;;;4881026;29;20393;-78
2021/12/26 20:52:10;;;;;;;37.13;27.13;;;;;;;;;;4896692;29;20448;-80
2021/12/26 20:54:37;;;;;;;35.67;26.65;;;;;;;;;;4890584;29;20512;-84
2021/12/26 20:57:04;;;;;;;35.90;27.63;;;;;;;;;;4891816;29;20514;-83
2021/12/26 20:59:31;;;;;;;37.75;28.48;;;;;;;;;;4893073;29;20405;-83
2021/12/26 21:01:58;;;;;;;40.80;30.27;;;;;;;;;;4893624;29;20381;-79
2021/12/26 21:04:25;;;;;;;233.40;170.40;;;;;;;;;;4876143;29;20469;-81
2021/12/26 21:06:51;;;;;;;185.65;129.05;;;;;;;;;;4881063;29;20442;-81
2021/12/26 21:09:17;;;;;;;121.53;89.43;;;;;;;;;;4878447;29;20409;-80
2021/12/26 21:11:43;;;;;;;86.07;66.22;;;;;;;;;;4894056;29;20385;-81
2021/12/26 21:14:10;;;;;;;69.80;53.07;;;;;;;;;;4874687;29;20408;-82
2021/12/26 21:16:36;;;;;;;59.22;44.65;;;;;;;;;;4891396;29;20392;-79
2021/12/26 21:19:02;;;;;;;49.83;37.40;;;;;;;;;;4875130;29;20437;-81
2021/12/26 21:21:28;;;;;;;41.88;29.98;;;;;;;;;;4874469;29;20401;-80
2021/12/26 21:23:54;;;;;;;42.97;32.58;;;;;;;;;;4890872;29;20393;-82
2021/12/26 21:26:20;;;;;;;133.50;97.63;;;;;;;;;;4894509;29;20400;-81
2021/12/26 21:28:46;;;;;;;51.60;38.65;;;;;;;;;;4894770;29;20883;-83
2021/12/26 21:31:12;;;;;;;45.70;32.53;;;;;;;;;;4895559;29;20391;-82
2021/12/26 21:33:39;;;;;;;44.67;31.75;;;;;;;;;;4878589;29;20421;-81
2021/12/26 21:36:05;;;;;;;82.53;66.13;;;;;;;;;;4894632;29;20831;-80
2021/12/26 21:38:31;;;;;;;89.72;74.55;;;;;;;;;;4876784;29;20420;-81
2021/12/26 21:40:57;;;;;;;68.22;54.65;;;;;;;;;;4895331;29;20488;-79
2021/12/26 21:43:23;;;;;;;51.03;38.45;;;;;;;;;;4878424;29;20472;-82
2021/12/26 21:45:55;;;;;;;49.58;36.17;;;;;;;;;;4895581;29;20397;-81
2021/12/26 21:48:21;;;;;;;47.73;35.27;;;;;;;;;;4894521;29;20389;-80
2021/12/26 21:50:47;;;;;;;45.75;33.40;;;;;;;;;;4877077;29;20397;-81
2021/12/26 21:53:15;;;;;;;48.85;36.33;;;;;;;;;;4894787;29;20421;-82
2021/12/26 21:55:41;;;;;;;54.30;40.92;;;;;;;;;;4893265;29;20413;-81
2021/12/26 21:58:07;;;;;;;54.63;40.10;;;;;;;;;;4893647;29;20983;-81
2021/12/26 22:00:34;;;;;;;48.38;35.28;;;;;;;;;;4877730;29;20405;-80
2021/12/26 22:03:01;;;;;;;48.37;34.27;;;;;;;;;;4876475;29;20530;-81
2021/12/26 22:05:27;;;;;;;43.55;33.17;;;;;;;;;;4894348;29;20964;-81
2021/12/26 22:07:54;;;;;;;45.00;33.33;;;;;;;;;;4876614;29;20393;-83
2021/12/26 22:10:20;;;;;;;47.53;34.13;;;;;;;;;;4893347;29;20413;-81
2021/12/26 22:12:46;;;;;;;48.70;36.47;;;;;;;;;;4894480;29;20423;-82
2021/12/26 22:15:12;;;;;;;45.45;34.00;;;;;;;;;;4876738;29;20393;-83
2021/12/26 22:17:38;;;;;;;44.30;32.78;;;;;;;;;;4894088;29;20389;-81
2021/12/26 22:20:07;;;;;;;46.47;34.45;;;;;;;;;;4893272;29;20441;-82
2021/12/26 22:22:33;;;;;;;47.72;35.03;;;;;;;;;;4876516;29;20401;-83
2021/12/26 22:25:05;;;;;;;43.88;33.88;;;;;;;;;;4860248;29;20412;-82
2021/12/26 22:27:31;;;;;;;48.97;35.22;;;;;;;;;;4876399;29;20409;-80
2021/12/26 22:29:57;;;;;;;47.10;34.25;;;;;;;;;;4893529;29;20407;-81
2021/12/26 22:32:23;;;;;;;49.13;35.70;;;;;;;;;;4895955;29;20421;-82
2021/12/26 22:34:49;;;;;;;47.53;35.53;;;;;;;;;;4878674;29;20732;-80
2021/12/26 22:37:18;;;;;;;45.95;34.03;;;;;;;;;;4888663;29;20386;-82
2021/12/26 22:39:45;;;;;;;49.77;35.80;;;;;;;;;;4875608;29;20450;-80
2021/12/26 22:42:11;;;;;;;46.95;36.08;;;;;;;;;;4876993;29;20416;-81
2021/12/26 22:44:37;;;;;;;50.00;37.25;;;;;;;;;;4892761;29;20465;-80
2021/12/26 22:47:03;;;;;;;52.22;36.80;;;;;;;;;;4892646;29;20394;-84
2021/12/26 22:49:31;;;;;;;50.13;36.42;;;;;;;;;;4893307;29;20884;-80
2021/12/26 22:51:58;;;;;;;49.67;36.80;;;;;;;;;;4876215;29;20470;-80
2021/12/26 22:54:24;;;;;;;48.55;36.55;;;;;;;;;;4892088;29;20416;-82
2021/12/26 22:56:53;;;;;;;49.97;37.53;;;;;;;;;;4894170;29;20498;-82
2021/12/26 22:59:24;;;;;;;54.00;39.10;;;;;;;;;;4875876;29;20476;-81
2021/12/26 23:01:51;;;;;;;51.80;37.55;;;;;;;;;;4893501;29;21019;-83
2021/12/26 23:04:17;;;;;;;51.67;38.25;;;;;;;;;;4875827;29;20484;-80
2021/12/26 23:06:43;;;;;;;51.15;37.05;;;;;;;;;;4893995;29;20390;-82
2021/12/26 23:09:09;;;;;;;54.22;38.30;;;;;;;;;;4894358;29;20381;-82
2021/12/26 23:11:35;;;;;;;53.07;39.00;;;;;;;;;;4893078;29;20492;-80
2021/12/26 23:14:02;;;;;;;52.47;38.15;;;;;;;;;;4892666;29;20417;-79
2021/12/26 23:16:31;;;;;;;52.38;38.20;;;;;;;;;;4892336;29;20392;-79
2021/12/26 23:18:58;;;;;;;54.70;39.72;;;;;;;;;;4896513;29;20403;-80
2021/12/26 23:21:24;;;;;;;54.13;38.80;;;;;;;;;;4875775;29;20394;-80
2021/12/26 23:23:50;;;;;;;53.22;39.67;;;;;;;;;;4893066;29;20389;-82
2021/12/26 23:26:16;;;;;;;50.50;38.67;;;;;;;;;;4893119;29;20409;-81
2021/12/26 23:28:43;;;;;;;51.53;38.70;;;;;;;;;;4892254;29;20397;-80
2021/12/26 23:31:09;;;;;;;55.88;38.25;;;;;;;;;;4875156;29;20410;-80
2021/12/26 23:33:35;;;;;;;53.83;40.08;;;;;;;;;;4874905;29;20469;-82
2021/12/26 23:36:01;;;;;;;55.63;39.88;;;;;;;;;;4875439;29;20409;-80
2021/12/26 23:38:32;;;;;;;54.00;40.05;;;;;;;;;;4892239;29;20400;-81
2021/12/26 23:41:01;;;;;;;56.38;40.35;;;;;;;;;;4877750;29;20835;-81
2021/12/26 23:43:34;;;;;;;53.53;40.63;;;;;;;;;;4875704;29;20491;-80
2021/12/26 23:46:01;;;;;;;55.15;40.90;;;;;;;;;;4892592;29;20431;-80
2021/12/26 23:48:27;;;;;;;56.65;41.95;;;;;;;;;;4889808;29;20401;-80
2021/12/26 23:50:54;;;;;;;58.05;42.17;;;;;;;;;;4891458;29;20749;-83
2021/12/26 23:53:20;;;;;;;55.77;39.83;;;;;;;;;;4875246;29;20464;-82
2021/12/26 23:55:46;;;;;;;54.03;39.92;;;;;;;;;;4875421;29;20519;-82
2021/12/26 23:58:12;;;;;;;52.63;40.05;;;;;;;;;;4892315;29;20378;-82
